Main page
METAR-TAF:

METAR-TAF

Airports :

Oberpfaffenhofen, Germany

latitude: 48-05N, longitude: 011-17E, elevation: 600 m

Current weather observation

The report was made 6 hours and 29 minutes ago, at 17:20 UTC
Wind 3 kt from the East/Northeast
Temperature 26°C
Humidity 42%
Pressure 1013 hPa
Visibility 10 km or more
no clouds below 1500 m and no cumulonimbus

METAR: EDMO 201720Z 07003KT CAVOK 26/12 Q1013

Time: 01:49 (23:49 UTC)

Forecast

The report was made 6 hours and 49 minutes ago, at 17:00 UTC
Forecast valid from 20 at 18 UTC to 21 at 03 UTC
Wind 5 kt from the North/Northeast
Visibility 10 km or more
no clouds below 1500 m and no cumulonimbus
Probability 30% :
Temporary
from 21 at 00 UTC to 21 at 03 UTC
Scattered clouds at a height of 5000 ft, Cumulonimbus.
rain showers

TAF: EDMO 201700Z 2018/2103 02005KT CAVOK PROB30 TEMPO 2100/2103 SHRA SCT050CB

Weather observations and forecasts of more than 4000 airports (METAR and TAF reports).

The available stations are represented by yellow and red dots on the map.

Hover mouse over dot to see the name of the station.

Then click to see weather observations and forecasts.

To change the map : click on the green buttons with a black cross to zoom in, on the green button with a dash to zoom out, or on the green arrows for adjacent maps.


METAR-TAF: